Terminal Aerodrome Forecast
Issued by NWS

Home | Current Version | Previous Version | Text Only | Print | Product List | Glossary On
Versions: 1 2 3 4 5 6 7 8 9 10 11 12 13 14 15 16 17 18 19 20 21 22 23
000
FTUS45 KRIW 241735
TAFPNA
TAF
KPNA 241735Z 2418/2518 26017G27KT P6SM SCT080 BKN100
     FM242200 26018G28KT P6SM VCTS SCT050 BKN080CB
     FM250200 29014KT P6SM VCSH SCT060 BKN090
     FM250900 29009KT P6SM SCT090
     FM251600 30012G18KT P6SM BKN080
      AMD LTD TO CLD VIS AND WIND=

USA.gov is the U.S. government's official web portal to all federal, state and local government web resources and services.